TimeIST,TemperatureF,Dew PointF,Humidity,Sea Level PressureIn,VisibilityMPH,Wind Direction,Wind SpeedMPH,Gust SpeedMPH,PrecipitationIn,Events,Conditions,WindDirDegrees,DateUTC
12:10 AM,84.2,55.4,37,29.89,2.2,SSW,5.8,-,N/A,,Smoke,200,2013-03-01 18:40:00
12:40 AM,80.6,59.0,48,29.89,2.2,Calm,Calm,-,N/A,,Smoke,0,2013-03-01 19:10:00
1:10 AM,78.8,60.8,54,29.89,2.2,Calm,Calm,-,N/A,,Smoke,0,2013-03-01 19:40:00
2:10 AM,78.8,59.0,51,29.86,1.9,Calm,Calm,-,N/A,,Smoke,0,2013-03-01 20:40:00
2:40 AM,78.8,59.0,51,29.86,1.9,Calm,Calm,-,N/A,,Smoke,0,2013-03-01 21:10:00
3:10 AM,77.0,57.2,50,29.86,1.9,Calm,Calm,-,N/A,,Smoke,0,2013-03-01 21:40:00
3:40 AM,77.0,55.4,47,29.86,1.9,Calm,Calm,-,N/A,,Smoke,0,2013-03-01 22:10:00
4:40 AM,78.8,55.4,44,29.86,2.5,Calm,Calm,-,N/A,,Smoke,0,2013-03-01 23:10:00
5:30 AM,66,58,69,29.87,1,Calm,Calm,,,,Haze,,2013-03-02 00:00:00
5:40 AM,82.4,44.6,26,29.89,3.1,East,6.9,-,N/A,,Smoke,80,2013-03-02 00:10:00
6:10 AM,84.2,44.6,25,29.89,3.1,ENE,6.9,-,N/A,,Smoke,60,2013-03-02 00:40:00
6:40 AM,82.4,44.6,26,29.89,3.1,ENE,6.9,-,N/A,,Smoke,60,2013-03-02 01:10:00
7:10 AM,82.4,44.6,26,29.92,3.7,ENE,6.9,-,N/A,,Unknown,60,2013-03-02 01:40:00
8:10 AM,84.2,46.4,27,29.95,3.7,ENE,4.6,-,N/A,,Unknown,70,2013-03-02 02:40:00
8:30 AM,72,53,41,29.95,1,Calm,Calm,,,,Smoke,,2013-03-02 03:00:00
8:40 AM,86.0,46.4,25,29.95,3.7,ENE,8.1,-,N/A,,Unknown,70,2013-03-02 03:10:00
9:10 AM,87.8,46.4,24,29.95,3.7,ENE,10.4,-,N/A,,Unknown,70,2013-03-02 03:40:00
9:40 AM,89.6,46.4,22,29.98,3.7,ENE,9.2,-,N/A,,Unknown,60,2013-03-02 04:10:00
10:10 AM,91.4,46.4,21,29.98,3.7,ENE,10.4,-,N/A,,Unknown,70,2013-03-02 04:40:00
10:40 AM,93.2,46.4,20,29.98,3.7,NE,9.2,-,N/A,,Unknown,40,2013-03-02 05:10:00
11:10 AM,93.2,46.4,20,29.98,3.7,NE,10.4,-,N/A,,Unknown,50,2013-03-02 05:40:00
11:30 AM,95,42,9,29.96,1,North,4.6,,,,Smoke,0,2013-03-02 06:00:00
11:40 AM,95.0,48.2,20,29.95,3.7,NE,8.1,-,N/A,,Unknown,50,2013-03-02 06:10:00
12:10 PM,96.8,48.2,19,29.95,4.3,East,6.9,-,N/A,,Unknown,80,2013-03-02 06:40:00
12:40 PM,98.6,48.2,18,29.92,4.3,SE,6.9,-,N/A,,Unknown,140,2013-03-02 07:10:00
1:10 PM,98.6,48.2,18,29.92,4.3,NNE,6.9,-,N/A,,Unknown,30,2013-03-02 07:40:00
1:40 PM,96.8,59.0,28,29.89,4.3,WNW,9.2,-,N/A,,Unknown,290,2013-03-02 08:10:00
2:10 PM,96.8,57.2,27,29.86,3.7,West,12.7,-,N/A,,Unknown,280,2013-03-02 08:40:00
2:30 PM,98,59,18,29.88,2,West,6.9,,,,,270,2013-03-02 09:00:00
2:40 PM,95.0,53.6,25,29.86,3.7,West,12.7,-,N/A,,Unknown,280,2013-03-02 09:10:00
3:40 PM,93.2,53.6,26,29.86,3.1,WNW,10.4,-,N/A,,Smoke,300,2013-03-02 10:10:00
4:10 PM,91.4,57.2,31,29.83,3.1,NW,11.5,-,N/A,,Smoke,320,2013-03-02 10:40:00
4:40 PM,91.4,53.6,28,29.86,3.1,NW,10.4,-,N/A,,Smoke,310,2013-03-02 11:10:00
5:10 PM,91.4,50.0,24,29.86,3.1,NW,11.5,-,N/A,,Smoke,310,2013-03-02 11:40:00
5:30 PM,90,53,19,29.85,2,NW,6.9,,,,,320,2013-03-02 12:00:00
5:40 PM,89.6,53.6,29,29.86,3.1,NW,8.1,-,N/A,,Smoke,320,2013-03-02 12:10:00
6:10 PM,87.8,55.4,33,29.86,2.8,NW,9.2,-,N/A,,Smoke,310,2013-03-02 12:40:00
6:40 PM,87.8,53.6,31,29.86,2.5,NW,10.4,-,N/A,,Smoke,320,2013-03-02 13:10:00
7:10 PM,86.0,55.4,35,29.86,2.2,NW,8.1,-,N/A,,Smoke,320,2013-03-02 13:40:00
7:40 PM,84.2,59.0,42,29.89,2.2,NW,6.9,-,N/A,,Smoke,320,2013-03-02 14:10:00
8:30 PM,82,62,41,29.90,1,NW,4.6,,,,Smoke,320,2013-03-02 15:00:00
8:40 PM,84.2,60.8,45,29.92,1.9,North,6.9,-,N/A,,Smoke,350,2013-03-02 15:10:00
9:10 PM,84.2,59.0,42,29.92,1.9,NNW,5.8,-,N/A,,Smoke,330,2013-03-02 15:40:00
9:40 PM,82.4,60.8,48,29.92,1.9,Calm,Calm,-,N/A,,Smoke,0,2013-03-02 16:10:00
10:10 PM,84.2,59.0,42,29.92,1.9,Calm,Calm,-,N/A,,Smoke,0,2013-03-02 16:40:00
10:40 PM,82.4,59.0,45,29.92,1.9,NNE,3.5,-,N/A,,Smoke,20,2013-03-02 17:10:00
11:10 PM,80.6,60.8,51,29.92,1.9,Calm,Calm,-,N/A,,Smoke,0,2013-03-02 17:40:00
11:30 PM,72,60,58,29.93,1,Calm,Calm,,,,Smoke,,2013-03-02 18:00:00
11:40 PM,82.4,59.0,45,29.92,1.6,Calm,Calm,-,N/A,,Smoke,0,2013-03-02 18:10:00